sensor_id;sensor_type;location;lat;lon;timestamp;pressure;altitude;pressure_sealevel;temperature;humidity
60817;BME280;51921;51.518;-3.188;2023-04-22T00:00:00;100484.87;;;3.53;90.70
60817;BME280;51921;51.518;-3.188;2023-04-22T00:02:26;100486.64;;;2.56;97.10
60817;BME280;51921;51.518;-3.188;2023-04-22T00:04:51;100480.36;;;2.28;100.00
60817;BME280;51921;51.518;-3.188;2023-04-22T00:07:17;100481.65;;;0.57;100.00
60817;BME280;51921;51.518;-3.188;2023-04-22T00:09:43;100482.35;;;2.61;100.00
60817;BME280;51921;51.518;-3.188;2023-04-22T00:12:09;100482.13;;;2.22;100.00
60817;BME280;51921;51.518;-3.188;2023-04-22T00:14:34;100481.03;;;3.55;100.00
60817;BME280;51921;51.518;-3.188;2023-04-22T00:16:59;100480.49;;;2.96;97.78
60817;BME280;51921;51.518;-3.188;2023-04-22T00:19:25;100478.43;;;3.35;96.34
60817;BME280;51921;51.518;-3.188;2023-04-22T00:21:50;100477.35;;;3.49;93.41
60817;BME280;51921;51.518;-3.188;2023-04-22T00:24:15;100476.19;;;3.82;91.75
60817;BME280;51921;51.518;-3.188;2023-04-22T00:26:41;100473.75;;;3.42;92.70
60817;BME280;51921;51.518;-3.188;2023-04-22T00:29:06;100472.15;;;2.92;96.76
60817;BME280;51921;51.518;-3.188;2023-04-22T00:31:31;100464.86;;;3.64;92.29
60817;BME280;51921;51.518;-3.188;2023-04-22T00:33:57;100458.47;;;3.63;92.00
60817;BME280;51921;51.518;-3.188;2023-04-22T00:36:22;100459.21;;;4.21;89.85
60817;BME280;51921;51.518;-3.188;2023-04-22T00:38:49;100454.36;;;3.81;88.02
60817;BME280;51921;51.518;-3.188;2023-04-22T00:41:13;100451.16;;;3.10;90.53
60817;BME280;51921;51.518;-3.188;2023-04-22T00:43:38;100451.17;;;3.10;92.22
60817;BME280;51921;51.518;-3.188;2023-04-22T00:46:03;100452.04;;;2.45;95.18
60817;BME280;51921;51.518;-3.188;2023-04-22T00:48:29;100450.95;;;2.86;94.14
60817;BME280;51921;51.518;-3.188;2023-04-22T00:50:54;100449.21;;;2.72;95.82
60817;BME280;51921;51.518;-3.188;2023-04-22T00:53:19;100442.55;;;3.37;92.03
60817;BME280;51921;51.518;-3.188;2023-04-22T00:55:44;100437.70;;;4.31;87.76
60817;BME280;51921;51.518;-3.188;2023-04-22T00:58:10;100435.75;;;4.36;84.96
60817;BME280;51921;51.518;-3.188;2023-04-22T01:00:35;100434.42;;;4.69;84.23
60817;BME280;51921;51.518;-3.188;2023-04-22T01:03:01;100433.85;;;3.59;86.23
60817;BME280;51921;51.518;-3.188;2023-04-22T01:05:27;100434.69;;;3.25;89.10
60817;BME280;51921;51.518;-3.188;2023-04-22T01:07:51;100433.04;;;3.51;89.53
60817;BME280;51921;51.518;-3.188;2023-04-22T01:10:17;100430.69;;;3.62;90.12
60817;BME280;51921;51.518;-3.188;2023-04-22T01:12:42;100430.40;;;3.36;93.73
60817;BME280;51921;51.518;-3.188;2023-04-22T01:15:08;100424.29;;;1.87;95.28
60817;BME280;51921;51.518;-3.188;2023-04-22T01:17:34;100422.96;;;2.66;95.86
60817;BME280;51921;51.518;-3.188;2023-04-22T01:19:59;100413.85;;;3.00;92.03
60817;BME280;51921;51.518;-3.188;2023-04-22T01:22:25;100408.62;;;1.10;100.00
60817;BME280;51921;51.518;-3.188;2023-04-22T01:24:50;100406.22;;;0.01;100.00
60817;BME280;51921;51.518;-3.188;2023-04-22T01:27:15;100401.11;;;0.19;100.00
60817;BME280;51921;51.518;-3.188;2023-04-22T01:29:40;100398.24;;;0.87;100.00
60817;BME280;51921;51.518;-3.188;2023-04-22T01:32:05;100396.67;;;2.36;100.00
60817;BME280;51921;51.518;-3.188;2023-04-22T01:34:31;100394.87;;;2.04;100.00
60817;BME280;51921;51.518;-3.188;2023-04-22T01:36:56;100392.04;;;2.16;100.00
60817;BME280;51921;51.518;-3.188;2023-04-22T01:39:22;100391.64;;;2.84;100.00
60817;BME280;51921;51.518;-3.188;2023-04-22T01:41:47;100390.86;;;2.27;100.00
60817;BME280;51921;51.518;-3.188;2023-04-22T01:44:13;100395.05;;;2.47;100.00
60817;BME280;51921;51.518;-3.188;2023-04-22T01:46:38;100393.49;;;2.46;100.00
60817;BME280;51921;51.518;-3.188;2023-04-22T01:49:08;100395.21;;;2.06;99.77
60817;BME280;51921;51.518;-3.188;2023-04-22T01:51:29;100395.72;;;2.47;97.29
60817;BME280;51921;51.518;-3.188;2023-04-22T01:53:54;100396.41;;;2.91;95.13
60817;BME280;51921;51.518;-3.188;2023-04-22T01:56:19;100392.40;;;3.74;86.38
60817;BME280;51921;51.518;-3.188;2023-04-22T01:58:44;100387.50;;;5.48;78.43
60817;BME280;51921;51.518;-3.188;2023-04-22T02:01:11;100388.01;;;4.13;83.00
60817;BME280;51921;51.518;-3.188;2023-04-22T02:03:35;100380.75;;;4.06;83.99
60817;BME280;51921;51.518;-3.188;2023-04-22T02:06:00;100377.36;;;2.72;90.52
60817;BME280;51921;51.518;-3.188;2023-04-22T02:08:26;100372.71;;;3.29;89.23
60817;BME280;51921;51.518;-3.188;2023-04-22T02:10:51;100373.38;;;2.70;91.69
60817;BME280;51921;51.518;-3.188;2023-04-22T02:13:17;100363.43;;;5.35;78.74
60817;BME280;51921;51.518;-3.188;2023-04-22T02:15:43;100362.78;;;6.06;72.94
60817;BME280;51921;51.518;-3.188;2023-04-22T02:18:08;100364.07;;;3.07;86.31
60817;BME280;51921;51.518;-3.188;2023-04-22T02:20:33;100367.12;;;2.19;93.40
60817;BME280;51921;51.518;-3.188;2023-04-22T02:22:58;100365.43;;;1.96;94.35
60817;BME280;51921;51.518;-3.188;2023-04-22T02:25:24;100358.15;;;1.19;98.76
60817;BME280;51921;51.518;-3.188;2023-04-22T02:27:49;100354.08;;;2.82;98.23
60817;BME280;51921;51.518;-3.188;2023-04-22T02:30:15;100345.91;;;1.08;100.00
60817;BME280;51921;51.518;-3.188;2023-04-22T02:32:40;100343.30;;;1.33;100.00
60817;BME280;51921;51.518;-3.188;2023-04-22T02:35:06;100347.04;;;2.23;98.48
60817;BME280;51921;51.518;-3.188;2023-04-22T02:37:31;100343.23;;;3.03;95.19
60817;BME280;51921;51.518;-3.188;2023-04-22T02:39:56;100343.62;;;2.31;96.54
60817;BME280;51921;51.518;-3.188;2023-04-22T02:42:21;100339.55;;;1.85;96.48
60817;BME280;51921;51.518;-3.188;2023-04-22T02:44:47;100336.88;;;3.22;91.45
60817;BME280;51921;51.518;-3.188;2023-04-22T02:47:12;100339.49;;;2.17;91.07
60817;BME280;51921;51.518;-3.188;2023-04-22T02:49:37;100337.01;;;2.38;92.45
60817;BME280;51921;51.518;-3.188;2023-04-22T02:52:04;100330.60;;;3.49;85.90
60817;BME280;51921;51.518;-3.188;2023-04-22T02:54:29;100334.60;;;2.25;89.15
60817;BME280;51921;51.518;-3.188;2023-04-22T02:56:54;100333.77;;;1.74;92.85
60817;BME280;51921;51.518;-3.188;2023-04-22T02:59:24;100328.75;;;3.12;87.47
60817;BME280;51921;51.518;-3.188;2023-04-22T03:01:45;100332.98;;;2.58;89.65
60817;BME280;51921;51.518;-3.188;2023-04-22T03:04:10;100332.00;;;2.55;89.67
60817;BME280;51921;51.518;-3.188;2023-04-22T03:06:36;100334.24;;;1.68;94.25
60817;BME280;51921;51.518;-3.188;2023-04-22T03:09:01;100334.31;;;1.87;93.13
60817;BME280;51921;51.518;-3.188;2023-04-22T03:11:27;100327.26;;;1.61;94.43
60817;BME280;51921;51.518;-3.188;2023-04-22T03:13:53;100325.17;;;1.57;95.83
60817;BME280;51921;51.518;-3.188;2023-04-22T03:16:21;100321.81;;;3.10;88.95
60817;BME280;51921;51.518;-3.188;2023-04-22T03:18:43;100323.76;;;2.79;88.44
60817;BME280;51921;51.518;-3.188;2023-04-22T03:21:08;100322.17;;;2.49;89.31
60817;BME280;51921;51.518;-3.188;2023-04-22T03:23:34;100323.10;;;1.90;91.56
60817;BME280;51921;51.518;-3.188;2023-04-22T03:25:59;100309.30;;;1.28;96.60
60817;BME280;51921;51.518;-3.188;2023-04-22T03:28:25;100306.26;;;2.82;93.08
60817;BME280;51921;51.518;-3.188;2023-04-22T03:30:50;100299.28;;;3.70;84.31
60817;BME280;51921;51.518;-3.188;2023-04-22T03:33:16;100294.54;;;4.08;81.76
60817;BME280;51921;51.518;-3.188;2023-04-22T03:35:41;100296.10;;;2.73;85.93
60817;BME280;51921;51.518;-3.188;2023-04-22T03:38:06;100293.45;;;1.98;90.70
60817;BME280;51921;51.518;-3.188;2023-04-22T03:40:32;100288.03;;;2.53;88.99
60817;BME280;51921;51.518;-3.188;2023-04-22T03:42:57;100284.57;;;2.04;90.64
60817;BME280;51921;51.518;-3.188;2023-04-22T03:45:22;100284.57;;;2.74;90.88
60817;BME280;51921;51.518;-3.188;2023-04-22T03:47:47;100286.77;;;1.77;90.42
60817;BME280;51921;51.518;-3.188;2023-04-22T03:50:13;100284.83;;;1.42;92.71
60817;BME280;51921;51.518;-3.188;2023-04-22T03:52:38;100283.05;;;-0.15;100.00
60817;BME280;51921;51.518;-3.188;2023-04-22T03:55:05;100281.14;;;-1.30;100.00
60817;BME280;51921;51.518;-3.188;2023-04-22T03:57:29;100275.83;;;-0.94;100.00
60817;BME280;51921;51.518;-3.188;2023-04-22T03:59:55;100273.33;;;0.61;100.00
60817;BME280;51921;51.518;-3.188;2023-04-22T04:02:20;100271.21;;;0.97;100.00
60817;BME280;51921;51.518;-3.188;2023-04-22T04:04:45;100268.80;;;1.02;100.00
60817;BME280;51921;51.518;-3.188;2023-04-22T04:07:11;100272.10;;;0.95;100.00
60817;BME280;51921;51.518;-3.188;2023-04-22T04:09:36;100266.38;;;0.50;100.00
60817;BME280;51921;51.518;-3.188;2023-04-22T04:12:01;100262.48;;;0.62;100.00
60817;BME280;51921;51.518;-3.188;2023-04-22T04:14:27;100261.00;;;1.06;99.08
60817;BME280;51921;51.518;-3.188;2023-04-22T04:16:52;100260.53;;;-0.30;100.00
60817;BME280;51921;51.518;-3.188;2023-04-22T04:19:17;100254.98;;;0.32;100.00
60817;BME280;51921;51.518;-3.188;2023-04-22T04:21:42;100252.11;;;-1.26;100.00
60817;BME280;51921;51.518;-3.188;2023-04-22T04:24:08;100249.68;;;-0.01;100.00
60817;BME280;51921;51.518;-3.188;2023-04-22T04:26:33;100249.12;;;1.77;100.00
60817;BME280;51921;51.518;-3.188;2023-04-22T04:28:59;100251.20;;;1.08;100.00
60817;BME280;51921;51.518;-3.188;2023-04-22T04:31:24;100246.93;;;0.50;100.00
60817;BME280;51921;51.518;-3.188;2023-04-22T04:33:49;100250.74;;;1.50;97.59
60817;BME280;51921;51.518;-3.188;2023-04-22T04:36:15;100247.44;;;0.91;99.11
60817;BME280;51921;51.518;-3.188;2023-04-22T04:38:40;100242.47;;;0.58;100.00
60817;BME280;51921;51.518;-3.188;2023-04-22T04:41:06;100239.73;;;1.34;100.00
60817;BME280;51921;51.518;-3.188;2023-04-22T04:43:31;100240.21;;;1.05;100.00
60817;BME280;51921;51.518;-3.188;2023-04-22T04:45:56;100241.13;;;1.01;100.00
60817;BME280;51921;51.518;-3.188;2023-04-22T04:48:21;100240.25;;;1.13;95.93
60817;BME280;51921;51.518;-3.188;2023-04-22T04:50:47;100240.89;;;3.04;90.14
60817;BME280;51921;51.518;-3.188;2023-04-22T04:53:12;100242.93;;;2.04;90.66
60817;BME280;51921;51.518;-3.188;2023-04-22T04:55:38;100243.02;;;1.71;91.57
60817;BME280;51921;51.518;-3.188;2023-04-22T04:58:03;100239.84;;;2.07;90.14
60817;BME280;51921;51.518;-3.188;2023-04-22T05:00:29;100241.50;;;2.23;91.23
60817;BME280;51921;51.518;-3.188;2023-04-22T05:02:54;100247.17;;;1.62;92.21
60817;BME280;51921;51.518;-3.188;2023-04-22T05:05:20;100244.65;;;1.23;95.87
60817;BME280;51921;51.518;-3.188;2023-04-22T05:07:46;100242.19;;;0.73;99.41
60817;BME280;51921;51.518;-3.188;2023-04-22T05:10:11;100242.83;;;1.04;97.67
60817;BME280;51921;51.518;-3.188;2023-04-22T05:12:37;100244.74;;;1.66;94.27
60817;BME280;51921;51.518;-3.188;2023-04-22T05:15:02;100244.10;;;1.37;95.49
60817;BME280;51921;51.518;-3.188;2023-04-22T05:17:27;100238.86;;;1.42;95.94
60817;BME280;51921;51.518;-3.188;2023-04-22T05:19:52;100240.57;;;2.46;90.62
60817;BME280;51921;51.518;-3.188;2023-04-22T05:22:18;100243.59;;;2.31;88.56
60817;BME280;51921;51.518;-3.188;2023-04-22T05:24:42;100243.06;;;2.20;89.79
60817;BME280;51921;51.518;-3.188;2023-04-22T05:27:08;100243.92;;;2.32;88.35
60817;BME280;51921;51.518;-3.188;2023-04-22T05:29:33;100242.45;;;1.55;90.40
60817;BME280;51921;51.518;-3.188;2023-04-22T05:31:58;100243.51;;;2.27;89.10
60817;BME280;51921;51.518;-3.188;2023-04-22T05:34:24;100244.21;;;2.16;89.91
60817;BME280;51921;51.518;-3.188;2023-04-22T05:36:49;100246.66;;;1.12;94.73
60817;BME280;51921;51.518;-3.188;2023-04-22T05:39:14;100250.11;;;1.92;93.15
60817;BME280;51921;51.518;-3.188;2023-04-22T05:41:40;100253.21;;;2.14;90.49
60817;BME280;51921;51.518;-3.188;2023-04-22T05:44:05;100258.69;;;2.15;90.77
60817;BME280;51921;51.518;-3.188;2023-04-22T05:46:30;100259.38;;;1.23;92.26
60817;BME280;51921;51.518;-3.188;2023-04-22T05:48:55;100256.39;;;0.74;98.15
60817;BME280;51921;51.518;-3.188;2023-04-22T05:51:20;100255.39;;;1.20;96.37
60817;BME280;51921;51.518;-3.188;2023-04-22T05:53:45;100250.26;;;0.52;100.00
60817;BME280;51921;51.518;-3.188;2023-04-22T05:56:11;100247.18;;;-0.39;100.00
60817;BME280;51921;51.518;-3.188;2023-04-22T05:58:36;100252.12;;;-0.43;100.00
60817;BME280;51921;51.518;-3.188;2023-04-22T06:01:01;100255.67;;;-0.70;100.00
60817;BME280;51921;51.518;-3.188;2023-04-22T06:03:26;100255.75;;;-1.23;100.00
60817;BME280;51921;51.518;-3.188;2023-04-22T06:05:52;100254.96;;;-1.06;100.00
60817;BME280;51921;51.518;-3.188;2023-04-22T06:08:18;100253.28;;;-1.28;100.00
60817;BME280;51921;51.518;-3.188;2023-04-22T06:10:43;100247.32;;;-1.10;100.00
60817;BME280;51921;51.518;-3.188;2023-04-22T06:13:08;100244.90;;;-0.94;100.00
60817;BME280;51921;51.518;-3.188;2023-04-22T06:15:33;100244.07;;;-0.87;100.00
60817;BME280;51921;51.518;-3.188;2023-04-22T06:17:59;100244.14;;;-1.09;100.00
60817;BME280;51921;51.518;-3.188;2023-04-22T06:20:25;100243.44;;;-0.73;100.00
60817;BME280;51921;51.518;-3.188;2023-04-22T06:22:50;100236.52;;;0.32;100.00
60817;BME280;51921;51.518;-3.188;2023-04-22T06:25:16;100242.64;;;1.88;100.00
60817;BME280;51921;51.518;-3.188;2023-04-22T06:27:41;100242.31;;;2.38;100.00
60817;BME280;51921;51.518;-3.188;2023-04-22T06:30:08;100237.58;;;3.15;100.00
60817;BME280;51921;51.518;-3.188;2023-04-22T06:32:32;100234.24;;;3.44;100.00
60817;BME280;51921;51.518;-3.188;2023-04-22T06:34:57;100235.52;;;3.94;97.63
60817;BME280;51921;51.518;-3.188;2023-04-22T06:37:23;100237.01;;;3.64;96.10
60817;BME280;51921;51.518;-3.188;2023-04-22T06:39:48;100239.93;;;4.03;94.83
60817;BME280;51921;51.518;-3.188;2023-04-22T06:42:14;100236.85;;;5.07;89.90
60817;BME280;51921;51.518;-3.188;2023-04-22T06:44:39;100233.60;;;4.66;89.36
60817;BME280;51921;51.518;-3.188;2023-04-22T06:47:04;100229.63;;;4.96;86.38
60817;BME280;51921;51.518;-3.188;2023-04-22T06:49:30;100226.26;;;6.17;82.22
60817;BME280;51921;51.518;-3.188;2023-04-22T06:51:55;100223.55;;;5.44;84.41
60817;BME280;51921;51.518;-3.188;2023-04-22T06:54:21;100219.86;;;5.63;82.90
60817;BME280;51921;51.518;-3.188;2023-04-22T06:56:46;100217.51;;;4.44;87.74
60817;BME280;51921;51.518;-3.188;2023-04-22T06:59:11;100220.20;;;2.18;100.00
60817;BME280;51921;51.518;-3.188;2023-04-22T07:01:37;100214.69;;;0.81;100.00
60817;BME280;51921;51.518;-3.188;2023-04-22T07:04:02;100209.41;;;0.10;100.00
60817;BME280;51921;51.518;-3.188;2023-04-22T07:06:28;100214.79;;;0.52;100.00
60817;BME280;51921;51.518;-3.188;2023-04-22T07:08:53;100216.28;;;3.37;100.00
60817;BME280;51921;51.518;-3.188;2023-04-22T07:11:19;100215.99;;;4.87;100.00
60817;BME280;51921;51.518;-3.188;2023-04-22T07:13:44;100215.59;;;5.53;100.00
60817;BME280;51921;51.518;-3.188;2023-04-22T07:16:10;100218.78;;;2.37;100.00
60817;BME280;51921;51.518;-3.188;2023-04-22T07:18:35;100216.68;;;4.81;100.00
60817;BME280;51921;51.518;-3.188;2023-04-22T07:21:00;100215.16;;;5.48;94.29
60817;BME280;51921;51.518;-3.188;2023-04-22T07:23:26;100214.69;;;5.14;98.23
60817;BME280;51921;51.518;-3.188;2023-04-22T07:25:53;100215.38;;;5.89;92.05
60817;BME280;51921;51.518;-3.188;2023-04-22T07:28:17;100206.24;;;6.16;89.21
60817;BME280;51921;51.518;-3.188;2023-04-22T07:30:43;100205.62;;;6.41;85.65
60817;BME280;51921;51.518;-3.188;2023-04-22T07:33:08;100202.93;;;5.05;94.22
60817;BME280;51921;51.518;-3.188;2023-04-22T07:35:34;100197.30;;;3.90;100.00
60817;BME280;51921;51.518;-3.188;2023-04-22T07:37:59;100195.58;;;8.12;90.79
60817;BME280;51921;51.518;-3.188;2023-04-22T07:40:24;100197.79;;;8.12;86.01
60817;BME280;51921;51.518;-3.188;2023-04-22T07:42:50;100197.60;;;11.14;66.56
60817;BME280;51921;51.518;-3.188;2023-04-22T07:45:16;100199.31;;;5.77;85.33
60817;BME280;51921;51.518;-3.188;2023-04-22T07:47:41;100198.47;;;9.25;73.40
60817;BME280;51921;51.518;-3.188;2023-04-22T07:50:07;100202.98;;;10.79;64.08
60817;BME280;51921;51.518;-3.188;2023-04-22T07:52:31;100197.43;;;13.60;56.99
60817;BME280;51921;51.518;-3.188;2023-04-22T07:54:57;100199.79;;;10.75;55.70
60817;BME280;51921;51.518;-3.188;2023-04-22T07:57:22;100196.70;;;12.95;58.01
60817;BME280;51921;51.518;-3.188;2023-04-22T07:59:47;100194.94;;;12.55;55.12
60817;BME280;51921;51.518;-3.188;2023-04-22T08:02:13;100194.49;;;11.18;65.34
60817;BME280;51921;51.518;-3.188;2023-04-22T08:04:38;100190.47;;;13.87;55.09
60817;BME280;51921;51.518;-3.188;2023-04-22T08:07:03;100190.35;;;13.17;54.79
60817;BME280;51921;51.518;-3.188;2023-04-22T08:09:28;100189.03;;;14.72;50.64
60817;BME280;51921;51.518;-3.188;2023-04-22T08:11:54;100189.85;;;14.10;50.77
60817;BME280;51921;51.518;-3.188;2023-04-22T08:14:20;100189.56;;;9.37;58.49
60817;BME280;51921;51.518;-3.188;2023-04-22T08:16:45;100193.01;;;5.19;87.70
60817;BME280;51921;51.518;-3.188;2023-04-22T08:19:11;100197.37;;;3.83;100.00
60817;BME280;51921;51.518;-3.188;2023-04-22T08:21:36;100198.39;;;3.09;100.00
60817;BME280;51921;51.518;-3.188;2023-04-22T08:24:02;100200.59;;;2.91;100.00
60817;BME280;51921;51.518;-3.188;2023-04-22T08:26:33;100200.25;;;3.92;100.00
60817;BME280;51921;51.518;-3.188;2023-04-22T08:28:53;100200.59;;;5.50;100.00
60817;BME280;51921;51.518;-3.188;2023-04-22T08:31:18;100199.17;;;8.09;96.45
60817;BME280;51921;51.518;-3.188;2023-04-22T08:33:44;100200.96;;;8.68;87.50
60817;BME280;51921;51.518;-3.188;2023-04-22T08:36:10;100202.23;;;6.82;96.48
60817;BME280;51921;51.518;-3.188;2023-04-22T08:38:36;100196.73;;;8.28;85.46
60817;BME280;51921;51.518;-3.188;2023-04-22T08:41:04;100196.11;;;8.42;82.87
60817;BME280;51921;51.518;-3.188;2023-04-22T08:43:27;100189.71;;;8.83;81.65
60817;BME280;51921;51.518;-3.188;2023-04-22T08:45:53;100188.32;;;8.86;79.83
60817;BME280;51921;51.518;-3.188;2023-04-22T08:48:18;100188.02;;;9.58;73.91
60817;BME280;51921;51.518;-3.188;2023-04-22T08:50:43;100186.20;;;10.02;70.95
60817;BME280;51921;51.518;-3.188;2023-04-22T08:53:09;100181.40;;;9.68;73.21
60817;BME280;51921;51.518;-3.188;2023-04-22T08:55:35;100177.94;;;8.92;78.81
60817;BME280;51921;51.518;-3.188;2023-04-22T08:58:00;100179.81;;;7.26;81.12
60817;BME280;51921;51.518;-3.188;2023-04-22T09:00:25;100173.87;;;9.05;82.85
60817;BME280;51921;51.518;-3.188;2023-04-22T09:02:51;100170.23;;;9.17;74.49
60817;BME280;51921;51.518;-3.188;2023-04-22T09:05:17;100164.94;;;7.13;84.34
60817;BME280;51921;51.518;-3.188;2023-04-22T09:07:42;100161.12;;;8.61;81.76
60817;BME280;51921;51.518;-3.188;2023-04-22T09:10:08;100158.30;;;9.52;75.98
60817;BME280;51921;51.518;-3.188;2023-04-22T09:12:33;100156.51;;;9.01;75.33
60817;BME280;51921;51.518;-3.188;2023-04-22T09:14:57;100156.54;;;6.33;79.20
60817;BME280;51921;51.518;-3.188;2023-04-22T09:17:29;100152.71;;;4.77;94.88
60817;BME280;51921;51.518;-3.188;2023-04-22T09:19:56;100148.44;;;7.83;87.21
60817;BME280;51921;51.518;-3.188;2023-04-22T09:22:13;100144.50;;;3.92;100.00
60817;BME280;51921;51.518;-3.188;2023-04-22T09:24:42;100139.45;;;7.48;92.32
60817;BME280;51921;51.518;-3.188;2023-04-22T09:27:04;100137.42;;;5.11;99.68
60817;BME280;51921;51.518;-3.188;2023-04-22T09:29:29;100134.26;;;7.09;95.35
60817;BME280;51921;51.518;-3.188;2023-04-22T09:31:55;100137.97;;;6.31;91.27
60817;BME280;51921;51.518;-3.188;2023-04-22T09:34:21;100134.38;;;5.21;100.00
60817;BME280;51921;51.518;-3.188;2023-04-22T09:36:49;100135.74;;;8.10;86.06
60817;BME280;51921;51.518;-3.188;2023-04-22T09:39:11;100143.52;;;9.98;75.69
60817;BME280;51921;51.518;-3.188;2023-04-22T09:41:38;100145.08;;;4.31;100.00
60817;BME280;51921;51.518;-3.188;2023-04-22T09:44:03;100150.50;;;5.44;95.93
60817;BME280;51921;51.518;-3.188;2023-04-22T09:46:28;100145.03;;;7.76;90.90
60817;BME280;51921;51.518;-3.188;2023-04-22T09:48:54;100150.57;;;5.32;93.41
60817;BME280;51921;51.518;-3.188;2023-04-22T09:51:18;100149.77;;;5.36;100.00
60817;BME280;51921;51.518;-3.188;2023-04-22T09:53:43;100146.42;;;7.41;91.70
60817;BME280;51921;51.518;-3.188;2023-04-22T09:56:09;100146.82;;;6.83;86.71
60817;BME280;51921;51.518;-3.188;2023-04-22T09:58:38;100145.68;;;6.24;97.50
60817;BME280;51921;51.518;-3.188;2023-04-22T10:01:00;100148.37;;;4.01;100.00
60817;BME280;51921;51.518;-3.188;2023-04-22T10:03:25;100150.46;;;4.77;100.00
60817;BME280;51921;51.518;-3.188;2023-04-22T10:05:51;100149.08;;;7.13;89.60
60817;BME280;51921;51.518;-3.188;2023-04-22T10:08:16;100149.82;;;8.95;74.08
60817;BME280;51921;51.518;-3.188;2023-04-22T10:10:42;100149.34;;;9.28;70.56
60817;BME280;51921;51.518;-3.188;2023-04-22T10:13:08;100147.54;;;4.63;95.32
60817;BME280;51921;51.518;-3.188;2023-04-22T10:15:37;100144.67;;;7.52;92.80
60817;BME280;51921;51.518;-3.188;2023-04-22T10:17:59;100146.75;;;8.17;80.92
60817;BME280;51921;51.518;-3.188;2023-04-22T10:20:24;100147.41;;;4.49;95.82
60817;BME280;51921;51.518;-3.188;2023-04-22T10:22:51;100151.77;;;4.86;100.00
60817;BME280;51921;51.518;-3.188;2023-04-22T10:25:20;100157.10;;;6.02;94.67
60817;BME280;51921;51.518;-3.188;2023-04-22T10:27:40;100153.61;;;6.20;91.83
60817;BME280;51921;51.518;-3.188;2023-04-22T10:30:08;100146.73;;;9.03;77.67
60817;BME280;51921;51.518;-3.188;2023-04-22T10:32:31;100146.87;;;9.86;75.78
60817;BME280;51921;51.518;-3.188;2023-04-22T10:35:07;100148.00;;;9.99;70.97
60817;BME280;51921;51.518;-3.188;2023-04-22T10:37:24;100145.29;;;9.71;69.76
60817;BME280;51921;51.518;-3.188;2023-04-22T10:42:12;100146.09;;;10.22;64.88
60817;BME280;51921;51.518;-3.188;2023-04-22T10:44:46;100145.92;;;9.41;67.07
60817;BME280;51921;51.518;-3.188;2023-04-22T10:47:03;100149.56;;;9.65;75.27
60817;BME280;51921;51.518;-3.188;2023-04-22T10:49:30;100153.24;;;10.38;69.60
60817;BME280;51921;51.518;-3.188;2023-04-22T10:51:56;100147.21;;;10.62;69.92
60817;BME280;51921;51.518;-3.188;2023-04-22T10:59:15;100140.55;;;11.16;69.05
60817;BME280;51921;51.518;-3.188;2023-04-22T11:01:40;100141.18;;;7.06;84.47
60817;BME280;51921;51.518;-3.188;2023-04-22T11:06:28;100133.87;;;9.19;84.98
60817;BME280;51921;51.518;-3.188;2023-04-22T11:11:18;100132.20;;;9.45;77.70
60817;BME280;51921;51.518;-3.188;2023-04-22T11:13:45;100133.13;;;9.85;76.15
60817;BME280;51921;51.518;-3.188;2023-04-22T11:16:09;100131.88;;;10.41;73.51
60817;BME280;51921;51.518;-3.188;2023-04-22T11:18:35;100125.62;;;10.94;71.91
60817;BME280;51921;51.518;-3.188;2023-04-22T11:21:03;100126.90;;;10.53;73.50
60817;BME280;51921;51.518;-3.188;2023-04-22T11:23:28;100129.50;;;10.81;71.27
60817;BME280;51921;51.518;-3.188;2023-04-22T11:25:55;100130.39;;;10.14;76.33
60817;BME280;51921;51.518;-3.188;2023-04-22T11:28:19;100130.53;;;7.41;84.12
60817;BME280;51921;51.518;-3.188;2023-04-22T11:30:42;100127.91;;;9.69;77.73
60817;BME280;51921;51.518;-3.188;2023-04-22T11:33:07;100127.22;;;10.19;74.13
60817;BME280;51921;51.518;-3.188;2023-04-22T11:35:33;100126.03;;;11.22;68.56
60817;BME280;51921;51.518;-3.188;2023-04-22T11:38:00;100129.54;;;11.44;68.66
60817;BME280;51921;51.518;-3.188;2023-04-22T11:40:26;100125.25;;;12.11;62.42
60817;BME280;51921;51.518;-3.188;2023-04-22T11:42:49;100124.03;;;12.64;62.70
60817;BME280;51921;51.518;-3.188;2023-04-22T11:45:14;100120.49;;;11.03;64.99
60817;BME280;51921;51.518;-3.188;2023-04-22T11:47:40;100123.81;;;11.61;64.50
60817;BME280;51921;51.518;-3.188;2023-04-22T11:50:07;100121.90;;;10.96;65.68
60817;BME280;51921;51.518;-3.188;2023-04-22T11:52:42;100117.95;;;11.67;62.72
60817;BME280;51921;51.518;-3.188;2023-04-22T11:54:59;100118.93;;;7.31;83.46
60817;BME280;51921;51.518;-3.188;2023-04-22T11:57:23;100114.29;;;6.61;92.34
60817;BME280;51921;51.518;-3.188;2023-04-22T11:59:57;100112.54;;;10.29;79.31
60817;BME280;51921;51.518;-3.188;2023-04-22T12:02:12;100109.69;;;10.80;72.94
60817;BME280;51921;51.518;-3.188;2023-04-22T12:04:39;100107.90;;;11.46;68.19
60817;BME280;51921;51.518;-3.188;2023-04-22T12:07:04;100105.97;;;11.28;67.51
60817;BME280;51921;51.518;-3.188;2023-04-22T12:09:29;100104.45;;;11.12;66.35
60817;BME280;51921;51.518;-3.188;2023-04-22T12:11:55;100099.79;;;12.26;61.49
60817;BME280;51921;51.518;-3.188;2023-04-22T12:16:46;100102.52;;;9.00;83.01
60817;BME280;51921;51.518;-3.188;2023-04-22T12:19:23;100104.54;;;6.80;93.87
60817;BME280;51921;51.518;-3.188;2023-04-22T12:21:37;100100.91;;;9.45;85.56
60817;BME280;51921;51.518;-3.188;2023-04-22T12:24:08;100103.68;;;10.26;76.28
60817;BME280;51921;51.518;-3.188;2023-04-22T12:26:28;100099.06;;;10.44;75.24
60817;BME280;51921;51.518;-3.188;2023-04-22T12:28:55;100094.17;;;11.95;70.50
60817;BME280;51921;51.518;-3.188;2023-04-22T12:31:19;100095.93;;;12.00;66.18
60817;BME280;51921;51.518;-3.188;2023-04-22T12:33:45;100100.09;;;12.48;65.63
60817;BME280;51921;51.518;-3.188;2023-04-22T12:36:10;100100.30;;;11.88;65.99
60817;BME280;51921;51.518;-3.188;2023-04-22T12:38:36;100098.38;;;11.94;63.98
60817;BME280;51921;51.518;-3.188;2023-04-22T12:41:01;100095.65;;;12.48;63.44
60817;BME280;51921;51.518;-3.188;2023-04-22T12:43:26;100089.68;;;13.64;57.64
60817;BME280;51921;51.518;-3.188;2023-04-22T12:45:52;100090.32;;;10.94;68.81
60817;BME280;51921;51.518;-3.188;2023-04-22T12:48:17;100088.19;;;12.36;64.83